Gallup Municipal Airport Gallup US
ICAO: KGUP
IATA: GUP
Category: Medium
Scheduled Services: No

Elevation: 6472 ft
TransAlt. 18000 ft.

Airport Communications:
ASOS:118.375
ALBUQUERQUE RDO:122.6
CTAF/UNICOM:122.95

KGUP Zoom In..

If you have problems with the map follow the link
https://www.worldairports.se/pages/airport.php?
ICAO=KGUP

Runways:

(A) RW 06 length 7316 ft width 100 ft
LOC 111.70 / hdg 62

(B) RW 24 length 7316 ft width 100 ft
LOC 111.70 / hdg 242

Location; KGUP
Day. 14 / Time. 15.53 Zulu
* Altimeter: 29.94
* Temperature: 06° c. 42.8°f.
* Wind from: 230° Speed 12 kn.
Dewpoint: 00° c.
Visibility: 10 Statute Miles.
Clouds: Overcast 3600 ft.

KGUP 141553Z AUTO 23012KT 10SM OVC036 06/00 A2994 RMK AO2 SLP119 T00560000


Wind From 230°
Speed 12 kn.

 
 
jpsmedia worldairports.se 2019   terms of use